createdAt,value
2022-08-07T00:01:44.069Z,102544.94
2022-08-07T00:04:09.396Z,102539.63
2022-08-07T00:06:51.171Z,102546.78
2022-08-07T00:09:22.654Z,102539.78
2022-08-07T00:11:55.997Z,102543.38
2022-08-07T00:14:30.920Z,102543.44
2022-08-07T00:17:02.405Z,102538.16
2022-08-07T00:19:59.955Z,102539.94
2022-08-07T00:22:24.382Z,102531.16
2022-08-07T00:25:07.349Z,102536.53
2022-08-07T00:27:53.141Z,102535.72
2022-08-07T00:30:27.037Z,102531.34
2022-08-07T00:32:57.546Z,102527.88
2022-08-07T00:35:26.911Z,102529.72
2022-08-07T00:38:00.364Z,102531.56
2022-08-07T00:40:39.896Z,102523.72
2022-08-07T00:44:01.684Z,102530.91
2022-08-07T00:46:02.356Z,102522.28
2022-08-07T00:48:31.978Z,102521.56
2022-08-07T00:51:01.224Z,102525.22
2022-08-07T00:53:39.348Z,102520.03
2022-08-07T00:56:15.800Z,102515.69
2022-08-07T00:58:47.332Z,102510.47
2022-08-07T01:01:20.352Z,102514.09
2022-08-07T01:03:56.149Z,102509.81
2022-08-07T01:06:29.527Z,102510.78
2022-08-07T01:09:00.993Z,102517.03
2022-08-07T01:12:23.439Z,102511.81
2022-08-07T01:14:28.831Z,102508.41
2022-08-07T01:16:58.580Z,102513.75
2022-08-07T01:19:32.601Z,102508.53
2022-08-07T01:22:03.168Z,102501.50
2022-08-07T01:24:36.413Z,102499.78
2022-08-07T01:27:04.872Z,102502.44
2022-08-07T01:29:34.353Z,102502.50
2022-08-07T01:32:05.541Z,102496.34
2022-08-07T01:34:44.489Z,102502.53
2022-08-07T01:37:17.385Z,102496.38
2022-08-07T01:39:48.035Z,102491.19
2022-08-07T01:42:38.917Z,102491.22
2022-08-07T01:45:18.290Z,102491.25
2022-08-07T01:48:19.533Z,102490.38
2022-08-07T01:50:49.704Z,102491.28
2022-08-07T01:54:09.015Z,102486.03
2022-08-07T01:56:49.452Z,102484.34
2022-08-07T01:59:32.610Z,102486.16
2022-08-07T02:02:07.447Z,102485.31
2022-08-07T02:04:59.219Z,102487.09
2022-08-07T02:07:49.906Z,102484.47
2022-08-07T02:10:27.792Z,102484.53
2022-08-07T02:13:01.687Z,102481.03
2022-08-07T02:15:39.874Z,102479.31
2022-08-07T02:18:13.376Z,102481.13
2022-08-07T02:20:48.744Z,102480.28
2022-08-07T02:23:25.699Z,102477.69
2022-08-07T02:26:30.864Z,102484.78
2022-08-07T02:28:45.467Z,102472.41
2022-08-07T02:31:28.262Z,102473.31
2022-08-07T02:34:03.058Z,102475.09
2022-08-07T02:36:34.543Z,102475.13
2022-08-07T02:39:17.545Z,102475.16
2022-08-07T02:42:02.031Z,102475.19
2022-08-07T02:44:34.875Z,102472.56
2022-08-07T02:47:07.764Z,102461.06
2022-08-07T02:49:57.520Z,102468.13
2022-08-07T02:52:34.693Z,102463.69
2022-08-07T02:55:27.847Z,102463.69
2022-08-07T02:58:03.996Z,102464.56
2022-08-07T03:00:35.220Z,102461.94
2022-08-07T03:03:07.363Z,102475.19
2022-08-07T03:05:49.658Z,102465.53
2022-08-07T03:08:26.728Z,102462.03
2022-08-07T03:10:58.221Z,102466.44
2022-08-07T03:13:39.110Z,102468.25
2022-08-07T03:16:23.079Z,102463.88
2022-08-07T03:18:56.656Z,102458.63
2022-08-07T03:21:24.663Z,102461.28
2022-08-07T03:24:20.055Z,102471.88
2022-08-07T03:26:58.821Z,102459.63
2022-08-07T03:29:39.851Z,102459.63
2022-08-07T03:32:16.759Z,102461.44
2022-08-07T03:35:16.897Z,102460.53
2022-08-07T03:37:46.154Z,102466.72
2022-08-07T03:40:22.927Z,102465.00
2022-08-07T03:42:55.552Z,102467.66
2022-08-07T03:45:30.936Z,102469.44
2022-08-07T03:48:04.384Z,102465.06
2022-08-07T03:50:38.814Z,102463.31
2022-08-07T03:53:07.067Z,102463.31
2022-08-07T03:55:57.371Z,102465.94
2022-08-07T03:59:05.486Z,102460.69
2022-08-07T04:01:16.208Z,102470.38
2022-08-07T04:03:53.233Z,102465.13
2022-08-07T04:06:37.187Z,102466.88
2022-08-07T04:09:15.650Z,102477.44
2022-08-07T04:12:28.231Z,102471.25
2022-08-07T04:14:43.912Z,102473.03
2022-08-07T04:17:20.979Z,102470.38
2022-08-07T04:19:54.427Z,102473.00
2022-08-07T04:22:29.207Z,102475.63
2022-08-07T04:25:01.087Z,102469.44
2022-08-07T04:27:35.519Z,102476.47
2022-08-07T04:30:11.639Z,102479.13
2022-08-07T04:32:58.355Z,102475.56
2022-08-07T04:35:28.640Z,102480.84
2022-08-07T04:38:09.130Z,102478.19
2022-08-07T04:40:52.608Z,102475.50
2022-08-07T04:44:12.844Z,102482.47
2022-08-07T04:46:59.356Z,102488.56
2022-08-07T04:49:37.742Z,102477.94
2022-08-07T04:52:51.316Z,102478.72
2022-08-07T04:58:23.578Z,102489.19
2022-08-07T04:59:17.570Z,102489.13
2022-08-07T05:02:09.031Z,102493.44
2022-08-07T05:05:54.451Z,102488.94
2022-08-07T05:08:18.864Z,102495.03
2022-08-07T05:11:19.711Z,102495.81
2022-08-07T05:14:53.679Z,102493.06
2022-08-07T05:16:57.545Z,102491.16
2022-08-07T05:19:45.037Z,102495.44
2022-08-07T05:22:26.714Z,102489.97
2022-08-07T05:24:59.861Z,102493.25
2022-08-07T05:28:03.550Z,102494.03
2022-08-07T05:30:30.280Z,102500.69
2022-08-07T05:33:03.851Z,102497.78
2022-08-07T05:35:42.216Z,102494.22
2022-08-07T05:38:12.794Z,102491.91
2022-08-07T05:41:05.536Z,102490.06
2022-08-07T05:44:08.115Z,102491.59
2022-08-07T05:46:36.165Z,102487.19
2022-08-07T05:49:11.702Z,102488.91
2022-08-07T05:51:46.348Z,102486.94
2022-08-07T05:54:30.971Z,102494.78
2022-08-07T05:57:08.131Z,102490.25
2022-08-07T05:59:56.225Z,102488.34
2022-08-07T06:02:31.789Z,102494.19
2022-08-07T06:05:15.395Z,102499.22
2022-08-07T06:08:13.361Z,102497.38
2022-08-07T06:10:37.533Z,102516.47
2022-08-07T06:13:06.692Z,102508.06
2022-08-07T06:15:43.287Z,102513.88
2022-08-07T06:18:18.271Z,102519.34
2022-08-07T06:20:49.599Z,102517.25
2022-08-07T06:23:46.068Z,102519.34
2022-08-07T06:26:05.338Z,102513.53
2022-08-07T06:28:34.448Z,102522.56
2022-08-07T06:31:01.564Z,102519.16
2022-08-07T06:33:33.053Z,102519.22
2022-08-07T06:36:12.246Z,102516.53
2022-08-07T06:40:13.081Z,102519.22
2022-08-07T06:42:01.935Z,102517.22
2022-08-07T06:45:04.388Z,102509.03
2022-08-07T06:47:38.653Z,102515.03
2022-08-07T06:50:19.015Z,102505.00
2022-08-07T06:52:54.063Z,102505.66
2022-08-07T06:55:53.527Z,102508.06
2022-08-07T06:58:21.618Z,102507.75
2022-08-07T07:00:59.036Z,102501.31
2022-08-07T07:03:48.089Z,102502.72
2022-08-07T07:06:15.292Z,102505.03
2022-08-07T07:08:53.824Z,102504.00
2022-08-07T07:12:09.603Z,102496.66
2022-08-07T07:14:10.997Z,102499.00
2022-08-07T07:16:50.645Z,102501.41
2022-08-07T07:19:57.554Z,102498.47
2022-08-07T07:22:36.953Z,102495.28
2022-08-07T07:26:31.455Z,102493.06
2022-08-07T07:28:41.948Z,102503.34
2022-08-07T07:31:03.675Z,102505.59
2022-08-07T07:33:34.946Z,102499.78
2022-08-07T07:36:12.540Z,102502.81
2022-08-07T07:38:43.526Z,102491.69
2022-08-07T07:41:16.502Z,102497.34
2022-08-07T07:44:13.840Z,102492.47
2022-08-07T07:46:55.224Z,102487.41
2022-08-07T07:50:35.520Z,102488.00
2022-08-07T07:52:18.690Z,102482.81
2022-08-07T07:54:51.316Z,102483.16
2022-08-07T07:57:53.385Z,102485.22
2022-08-07T08:00:15.010Z,102471.38
2022-08-07T08:03:06.303Z,102474.38
2022-08-07T08:05:50.787Z,102472.03
2022-08-07T08:08:35.262Z,102470.44
2022-08-07T08:11:08.433Z,102470.84
2022-08-07T08:13:54.130Z,102481.09
2022-08-07T08:16:37.991Z,102472.81
2022-08-07T08:19:17.602Z,102475.81
2022-08-07T08:22:18.097Z,102463.56
2022-08-07T08:25:25.035Z,102467.41
2022-08-07T08:28:03.820Z,102478.44
2022-08-07T08:30:37.472Z,102474.47
2022-08-07T08:33:18.721Z,102473.44
2022-08-07T08:35:55.848Z,102480.25
2022-08-07T08:38:34.246Z,102475.16
2022-08-07T08:41:31.418Z,102479.63
2022-08-07T08:44:15.475Z,102480.75
2022-08-07T08:47:05.052Z,102479.59
2022-08-07T08:50:05.701Z,102475.66
2022-08-07T08:53:03.554Z,102472.88
2022-08-07T08:55:55.309Z,102463.91
2022-08-07T08:58:50.560Z,102473.69
2022-08-07T09:01:40.234Z,102467.47
2022-08-07T09:04:26.030Z,102465.25
2022-08-07T09:07:23.257Z,102466.31
2022-08-07T09:10:06.272Z,102472.94
2022-08-07T09:12:57.767Z,102457.97
2022-08-07T09:16:22.882Z,102461.13
2022-08-07T09:18:58.564Z,102462.44
2022-08-07T09:21:57.940Z,102451.28
2022-08-07T09:24:56.128Z,102449.84
2022-08-07T09:28:00.240Z,102448.94
2022-08-07T09:31:00.603Z,102451.91
2022-08-07T09:34:18.029Z,102455.84
2022-08-07T09:37:14.687Z,102445.03
2022-08-07T09:40:05.698Z,102444.59
2022-08-07T09:43:03.936Z,102439.66
2022-08-07T09:47:25.465Z,102440.28
2022-08-07T09:50:02.148Z,102440.09
2022-08-07T09:52:34.560Z,102436.81
2022-08-07T09:55:28.872Z,102435.47
2022-08-07T09:58:18.008Z,102427.75
2022-08-07T10:01:50.628Z,102425.75
2022-08-07T10:04:46.145Z,102426.34
2022-08-07T10:08:09.230Z,102420.47
2022-08-07T10:11:59.801Z,102416.25
2022-08-07T10:14:35.407Z,102411.72
2022-08-07T10:18:01.758Z,102411.03
2022-08-07T10:22:14.698Z,102404.97
2022-08-07T10:24:59.501Z,102401.44
2022-08-07T10:28:12.611Z,102401.00
2022-08-07T10:31:11.327Z,102405.97
2022-08-07T10:34:06.677Z,102392.34
2022-08-07T10:37:12.728Z,102390.38
2022-08-07T10:40:06.171Z,102393.22
2022-08-07T10:42:57.133Z,102393.28
2022-08-07T10:45:44.568Z,102383.16
2022-08-07T10:48:34.880Z,102383.47
2022-08-07T10:52:01.940Z,102388.53
2022-08-07T10:55:01.411Z,102383.19
2022-08-07T10:57:57.550Z,102379.13
2022-08-07T11:00:36.975Z,102370.44
2022-08-07T11:03:28.133Z,102376.59
2022-08-07T11:06:28.491Z,102362.66
2022-08-07T11:10:10.127Z,102364.16
2022-08-07T11:12:38.581Z,102354.09
2022-08-07T11:15:21.848Z,102348.25
2022-08-07T11:18:05.959Z,102342.34
2022-08-07T11:21:02.581Z,102348.19
2022-08-07T11:24:18.243Z,102342.75
2022-08-07T11:27:13.407Z,102331.47
2022-08-07T11:30:17.799Z,102339.13
2022-08-07T11:33:08.164Z,102340.81
2022-08-07T11:36:20.468Z,102335.69
2022-08-07T11:39:39.755Z,102330.84
2022-08-07T11:42:29.856Z,102332.06
2022-08-07T11:45:12.264Z,102325.09
2022-08-07T11:48:33.411Z,102318.63
2022-08-07T11:51:44.692Z,102328.91
2022-08-07T11:54:55.596Z,102315.84
2022-08-07T11:57:59.988Z,102320.41
2022-08-07T12:01:05.240Z,102306.81
2022-08-07T12:04:29.343Z,102306.38
2022-08-07T12:07:20.337Z,102311.25
2022-08-07T12:10:05.659Z,102307.16
2022-08-07T12:12:44.288Z,102314.63
2022-08-07T12:15:46.089Z,102307.16
2022-08-07T12:18:34.206Z,102313.38
2022-08-07T12:21:55.583Z,102316.94
2022-08-07T12:25:07.998Z,102311.97
2022-08-07T12:28:08.516Z,102302.84
2022-08-07T12:30:40.716Z,102301.28
2022-08-07T12:33:28.079Z,102301.13
2022-08-07T12:36:02.246Z,102304.50
2022-08-07T12:38:42.684Z,102298.34
2022-08-07T12:41:12.982Z,102286.41
2022-08-07T12:44:04.135Z,102286.19
2022-08-07T12:47:26.861Z,102290.09
2022-08-07T12:50:38.218Z,102287.88
2022-08-07T12:53:17.513Z,102287.41
2022-08-07T12:56:30.864Z,102287.78
2022-08-07T12:59:04.949Z,102280.88
2022-08-07T13:02:33.501Z,102274.88
2022-08-07T13:06:03.406Z,102268.22
2022-08-07T13:08:34.291Z,102271.56
2022-08-07T13:12:02.384Z,102274.28
2022-08-07T13:14:55.322Z,102262.44
2022-08-07T13:17:52.615Z,102266.84
2022-08-07T13:20:46.410Z,102268.09
2022-08-07T13:24:01.502Z,102268.19
2022-08-07T13:26:46.084Z,102257.84
2022-08-07T13:30:19.672Z,102257.38
2022-08-07T13:33:16.604Z,102255.53
2022-08-07T13:36:29.014Z,102251.22
2022-08-07T13:39:13.058Z,102250.00
2022-08-07T13:41:57.904Z,102247.13
2022-08-07T13:44:34.490Z,102252.19
2022-08-07T13:47:09.364Z,102249.34
2022-08-07T13:50:33.174Z,102242.00
2022-08-07T13:52:43.043Z,102241.56
2022-08-07T13:55:26.593Z,102239.72
2022-08-07T13:58:28.021Z,102239.72
2022-08-07T14:01:09.265Z,102239.47
2022-08-07T14:04:05.182Z,102227.00
2022-08-07T14:06:35.940Z,102229.88
2022-08-07T14:09:05.986Z,102224.69
2022-08-07T14:11:53.398Z,102217.34
2022-08-07T14:14:42.192Z,102221.66
2022-08-07T14:18:12.231Z,102221.44
2022-08-07T14:20:39.864Z,102218.50
2022-08-07T14:23:59.593Z,102225.00
2022-08-07T14:26:29.944Z,102222.44
2022-08-07T14:29:10.359Z,102220.50
2022-08-07T14:31:56.421Z,102221.84
2022-08-07T14:34:30.359Z,102217.03
2022-08-07T14:37:08.046Z,102214.19
2022-08-07T14:40:17.894Z,102204.97
2022-08-07T14:43:00.809Z,102205.59
2022-08-07T14:45:46.504Z,102213.09
2022-08-07T14:48:21.924Z,102205.81
2022-08-07T14:54:30.493Z,102207.06
2022-08-07T14:56:50.859Z,102198.31
2022-08-07T15:02:34.379Z,102199.94
2022-08-07T15:05:04.041Z,102192.06
2022-08-07T15:13:25.389Z,102200.66
2022-08-07T15:16:03.441Z,102195.50
2022-08-07T15:18:49.246Z,102194.38
2022-08-07T15:21:58.838Z,102189.81
2022-08-07T15:25:12.790Z,102184.53
2022-08-07T15:27:23.419Z,102188.72
2022-08-07T15:42:45.804Z,102178.75
2022-08-07T15:44:17.144Z,102176.16
2022-08-07T15:50:05.021Z,102166.94
2022-08-07T15:52:32.719Z,102156.63
2022-08-07T15:55:08.958Z,102153.84
2022-08-07T15:57:49.051Z,102153.97
2022-08-07T16:00:31.696Z,102157.06
2022-08-07T16:03:47.260Z,102152.41
2022-08-07T16:06:13.106Z,102155.38
2022-08-07T16:08:45.613Z,102155.13
2022-08-07T16:11:55.083Z,102158.34
2022-08-07T16:15:09.979Z,102153.41
2022-08-07T16:18:50.433Z,102151.22
2022-08-07T16:22:02.668Z,102147.63
2022-08-07T16:24:57.351Z,102150.34
2022-08-07T16:27:41.654Z,102147.00
2022-08-07T16:30:31.784Z,102147.00
2022-08-07T16:34:02.135Z,102142.28
2022-08-07T16:36:35.230Z,102144.91
2022-08-07T16:40:28.081Z,102140.28
2022-08-07T16:44:05.576Z,102139.56
2022-08-07T16:47:12.450Z,102136.47
2022-08-07T16:50:37.047Z,102129.38
2022-08-07T16:53:55.424Z,102133.75
2022-08-07T16:56:55.201Z,102140.81
2022-08-07T16:59:46.705Z,102138.44
2022-08-07T17:03:06.096Z,102133.47
2022-08-07T17:06:29.627Z,102129.56
2022-08-07T17:09:09.880Z,102132.91
2022-08-07T17:12:35.752Z,102137.03
2022-08-07T17:15:21.183Z,102147.28
2022-08-07T17:18:29.798Z,102138.75
2022-08-07T17:20:58.038Z,102145.72
2022-08-07T17:23:32.596Z,102139.94
2022-08-07T17:26:23.928Z,102140.84
2022-08-07T17:29:05.964Z,102142.25
2022-08-07T17:32:31.150Z,102147.47
2022-08-07T17:35:51.396Z,102154.03
2022-08-07T17:38:33.520Z,102151.50
2022-08-07T17:41:12.489Z,102144.44
2022-08-07T17:44:14.254Z,102145.69
2022-08-07T17:47:03.894Z,102145.88
2022-08-07T17:49:56.050Z,102158.13
2022-08-07T17:52:43.584Z,102153.16
2022-08-07T17:56:00.297Z,102154.28
2022-08-07T17:58:46.486Z,102152.56
2022-08-07T18:01:27.721Z,102159.56
2022-08-07T18:04:31.271Z,102155.50
2022-08-07T18:07:20.281Z,102151.78
2022-08-07T18:10:05.806Z,102158.53
2022-08-07T18:12:53.921Z,102163.72
2022-08-07T18:15:32.919Z,102162.03
2022-08-07T18:18:45.094Z,102166.34
2022-08-07T18:21:27.470Z,102167.31
2022-08-07T18:24:34.170Z,102167.44
2022-08-07T18:27:49.832Z,102177.19
2022-08-07T18:30:38.069Z,102180.78
2022-08-07T18:33:54.994Z,102175.88
2022-08-07T18:36:37.864Z,102179.91
2022-08-07T18:40:09.060Z,102187.28
2022-08-07T18:42:39.933Z,102190.34
2022-08-07T18:45:44.659Z,102197.06
2022-08-07T18:50:30.762Z,102192.03
2022-08-07T18:52:40.769Z,102199.91
2022-08-07T18:55:42.617Z,102195.00
2022-08-07T18:58:39.320Z,102208.97
2022-08-07T19:02:18.139Z,102209.03
2022-08-07T19:04:59.479Z,102201.81
2022-08-07T19:08:14.917Z,102214.94
2022-08-07T19:11:35.922Z,102216.25
2022-08-07T19:14:16.994Z,102214.78
2022-08-07T19:17:05.968Z,102220.09
2022-08-07T19:20:03.685Z,102215.75
2022-08-07T19:23:01.956Z,102227.06
2022-08-07T19:26:24.982Z,102228.91
2022-08-07T19:30:56.548Z,102230.34
2022-08-07T19:32:11.515Z,102235.47
2022-08-07T19:34:33.958Z,102236.97
2022-08-07T19:37:10.360Z,102241.09
2022-08-07T19:40:10.315Z,102242.47
2022-08-07T19:42:45.580Z,102247.41
2022-08-07T19:46:05.077Z,102248.69
2022-08-07T19:48:18.490Z,102255.41
2022-08-07T19:50:53.294Z,102256.69
2022-08-07T19:54:34.443Z,102257.16
2022-08-07T19:57:51.208Z,102264.59
2022-08-07T19:59:02.704Z,102263.25
2022-08-07T20:01:56.288Z,102266.16
2022-08-07T20:04:42.156Z,102263.91
2022-08-07T20:07:46.056Z,102264.28
2022-08-07T20:10:55.399Z,102265.50
2022-08-07T20:13:33.004Z,102270.13
2022-08-07T20:16:04.456Z,102261.50
2022-08-07T20:18:35.206Z,102269.75
2022-08-07T20:21:21.398Z,102270.16
2022-08-07T20:24:00.132Z,102273.16
2022-08-07T20:26:44.725Z,102280.53
2022-08-07T20:29:49.098Z,102277.13
2022-08-07T20:32:11.403Z,102270.31
2022-08-07T20:34:54.449Z,102262.56
2022-08-07T20:37:29.696Z,102259.16
2022-08-07T20:40:05.377Z,102266.56
2022-08-07T20:42:56.663Z,102270.41
2022-08-07T20:45:32.889Z,102278.63
2022-08-07T20:48:28.606Z,102285.22
2022-08-07T20:51:00.568Z,102279.25
2022-08-07T20:54:03.567Z,102280.38
2022-08-07T20:56:28.051Z,102281.50
2022-08-07T20:59:05.832Z,102279.94
2022-08-07T21:01:45.880Z,102280.28
2022-08-07T21:04:28.668Z,102281.41
2022-08-07T21:07:03.933Z,102276.28
2022-08-07T21:09:52.723Z,102280.97
2022-08-07T21:12:31.333Z,102282.00
2022-08-07T21:15:05.284Z,102275.06
2022-08-07T21:18:05.995Z,102281.44
2022-08-07T21:20:30.128Z,102285.22
2022-08-07T21:23:50.322Z,102290.72
2022-08-07T21:26:39.590Z,102291.88
2022-08-07T21:29:18.616Z,102298.25
2022-08-07T21:32:43.006Z,102294.81
2022-08-07T21:35:34.481Z,102299.63
2022-08-07T21:38:49.932Z,102294.53
2022-08-07T21:41:37.925Z,102298.22
2022-08-07T21:44:53.870Z,102295.81
2022-08-07T21:47:38.000Z,102292.41
2022-08-07T21:50:16.527Z,102289.13
2022-08-07T21:53:17.117Z,102292.81
2022-08-07T21:56:48.162Z,102294.72
2022-08-07T22:00:04.486Z,102302.06
2022-08-07T22:03:17.152Z,102299.56
2022-08-07T22:06:00.534Z,102291.81
2022-08-07T22:08:42.537Z,102295.50
2022-08-07T22:11:11.234Z,102295.75
2022-08-07T22:13:52.190Z,102299.41
2022-08-07T22:16:49.180Z,102303.97
2022-08-07T22:19:32.527Z,102299.78
2022-08-07T22:22:29.023Z,102306.06
2022-08-07T22:25:08.382Z,102314.16
2022-08-07T22:28:29.373Z,102311.59
2022-08-07T22:31:06.709Z,102315.31
2022-08-07T22:33:56.450Z,102319.00
2022-08-07T22:36:53.168Z,102313.72
2022-08-07T22:39:52.549Z,102330.69
2022-08-07T22:42:29.673Z,102321.94
2022-08-07T22:45:04.343Z,102332.75
2022-08-07T22:48:31.414Z,102336.47
2022-08-07T22:51:20.136Z,102336.56
2022-08-07T22:54:40.675Z,102337.56
2022-08-07T22:57:41.548Z,102342.94
2022-08-07T23:00:21.590Z,102338.59
2022-08-07T23:03:28.418Z,102346.63
2022-08-07T23:06:37.215Z,102350.25
2022-08-07T23:10:00.937Z,102347.69
2022-08-07T23:12:52.633Z,102346.94
2022-08-07T23:16:44.929Z,102351.44
2022-08-07T23:20:02.994Z,102344.50
2022-08-07T23:23:01.258Z,102349.84
2022-08-07T23:26:23.463Z,102347.31
2022-08-07T23:29:43.425Z,102344.78
2022-08-07T23:34:33.552Z,102343.16
2022-08-07T23:36:17.258Z,102339.81
2022-08-07T23:39:12.621Z,102340.78
2022-08-07T23:42:04.657Z,102332.94
2022-08-07T23:44:56.316Z,102333.75
2022-08-07T23:47:51.768Z,102326.81
2022-08-07T23:50:54.555Z,102338.41
2022-08-07T23:53:51.530Z,102332.31
2022-08-07T23:56:53.654Z,102329.75
